Homer, Illinois
Current Conditions -  °F | °C
As of 11:53 AM on Sunday 21 Dec 2014 (Local Time) from KCMI Reporting Station
Broken Clouds Broken Clouds  
Wind Chill: 30°   Ceiling: 3100
Heat Index: 38°   Visibility: 8mi
Dew Point: 30°   Wind: 13mph
Humidity: 73%   Direction: 190°S
Pressure: 30.18"   Gusts: NA
Location:  40.03°N, 87.96°W
Report Text: KCMI 211753Z 19011KT 8SM BKN031 03/M01 A3018 RMK AO2 SLP226 T00331011 10039 21006 58019
Loading
Personal Weather Stations






























Interactive Weather Map New forecast layout! Learn more

10-Day Weather Forecast

Advertisements
Track Severe Weather on mobile